sensor_id;sensor_type;location;lat;lon;timestamp;pressure;altitude;pressure_sealevel;temperature;humidity
21588;BME280;10956;48.878;13.316;2023-04-25T00:00:20;93528.81;;;5.75;100.00
21588;BME280;10956;48.878;13.316;2023-04-25T00:02:45;93539.25;;;5.75;100.00
21588;BME280;10956;48.878;13.316;2023-04-25T00:05:11;93526.72;;;5.77;100.00
21588;BME280;10956;48.878;13.316;2023-04-25T00:07:37;93528.31;;;5.78;100.00
21588;BME280;10956;48.878;13.316;2023-04-25T00:10:03;93527.81;;;5.81;100.00
21588;BME280;10956;48.878;13.316;2023-04-25T00:12:29;93517.34;;;5.81;100.00
21588;BME280;10956;48.878;13.316;2023-04-25T00:14:54;93521.00;;;5.80;100.00
21588;BME280;10956;48.878;13.316;2023-04-25T00:17:22;93519.41;;;5.79;100.00
21588;BME280;10956;48.878;13.316;2023-04-25T00:19:49;93516.00;;;5.73;100.00
21588;BME280;10956;48.878;13.316;2023-04-25T00:22:15;93514.63;;;5.66;100.00
21588;BME280;10956;48.878;13.316;2023-04-25T00:24:41;93508.34;;;5.62;100.00
21588;BME280;10956;48.878;13.316;2023-04-25T00:27:07;93514.56;;;5.56;100.00
21588;BME280;10956;48.878;13.316;2023-04-25T00:29:33;93517.13;;;5.50;100.00
21588;BME280;10956;48.878;13.316;2023-04-25T00:31:58;93520.00;;;5.49;100.00
21588;BME280;10956;48.878;13.316;2023-04-25T00:34:23;93520.78;;;5.49;100.00
21588;BME280;10956;48.878;13.316;2023-04-25T00:36:49;93518.13;;;5.44;100.00
21588;BME280;10956;48.878;13.316;2023-04-25T00:39:14;93514.00;;;5.48;100.00
21588;BME280;10956;48.878;13.316;2023-04-25T00:41:40;93501.53;;;5.61;100.00
21588;BME280;10956;48.878;13.316;2023-04-25T00:44:08;93510.47;;;5.70;100.00
21588;BME280;10956;48.878;13.316;2023-04-25T00:46:35;93505.31;;;5.80;100.00
21588;BME280;10956;48.878;13.316;2023-04-25T00:49:00;93508.47;;;5.82;100.00
21588;BME280;10956;48.878;13.316;2023-04-25T00:51:26;93506.88;;;5.81;100.00
21588;BME280;10956;48.878;13.316;2023-04-25T00:53:52;93504.25;;;5.76;100.00
21588;BME280;10956;48.878;13.316;2023-04-25T00:56:18;93500.59;;;5.77;100.00
21588;BME280;10956;48.878;13.316;2023-04-25T00:58:43;93498.00;;;5.82;100.00
21588;BME280;10956;48.878;13.316;2023-04-25T01:01:10;93497.50;;;5.85;100.00
21588;BME280;10956;48.878;13.316;2023-04-25T01:03:38;93495.91;;;5.84;100.00
21588;BME280;10956;48.878;13.316;2023-04-25T01:06:08;93498.25;;;5.80;100.00
21588;BME280;10956;48.878;13.316;2023-04-25T01:08:34;93488.06;;;5.79;100.00
21588;BME280;10956;48.878;13.316;2023-04-25T01:11:00;93490.69;;;5.84;100.00
21588;BME280;10956;48.878;13.316;2023-04-25T01:13:25;93492.84;;;5.92;100.00
21588;BME280;10956;48.878;13.316;2023-04-25T01:15:51;93495.22;;;5.94;100.00
21588;BME280;10956;48.878;13.316;2023-04-25T01:18:16;93498.88;;;5.93;100.00
21588;BME280;10956;48.878;13.316;2023-04-25T01:20:43;93492.06;;;5.92;100.00
21588;BME280;10956;48.878;13.316;2023-04-25T01:23:09;93497.50;;;5.85;100.00
21588;BME280;10956;48.878;13.316;2023-04-25T01:25:35;93492.28;;;5.85;100.00
21588;BME280;10956;48.878;13.316;2023-04-25T01:28:01;93489.66;;;5.85;100.00
21588;BME280;10956;48.878;13.316;2023-04-25T01:30:26;93486.50;;;5.83;100.00
21588;BME280;10956;48.878;13.316;2023-04-25T01:32:54;93484.91;;;5.77;100.00
21588;BME280;10956;48.878;13.316;2023-04-25T01:35:20;93483.25;;;5.66;100.00
21588;BME280;10956;48.878;13.316;2023-04-25T01:37:45;93488.47;;;5.61;100.00
21588;BME280;10956;48.878;13.316;2023-04-25T01:40:12;93481.16;;;5.63;100.00
21588;BME280;10956;48.878;13.316;2023-04-25T01:42:41;93475.34;;;5.56;100.00
21588;BME280;10956;48.878;13.316;2023-04-25T01:45:08;93474.31;;;5.57;100.00
21588;BME280;10956;48.878;13.316;2023-04-25T01:47:33;93472.22;;;5.54;100.00
21588;BME280;10956;48.878;13.316;2023-04-25T01:50:01;93475.91;;;5.58;100.00
21588;BME280;10956;48.878;13.316;2023-04-25T01:52:26;93472.69;;;5.45;100.00
21588;BME280;10956;48.878;13.316;2023-04-25T01:54:52;93463.56;;;5.48;100.00
21588;BME280;10956;48.878;13.316;2023-04-25T01:57:18;93464.84;;;5.45;100.00
21588;BME280;10956;48.878;13.316;2023-04-25T01:59:43;93467.22;;;5.52;100.00
21588;BME280;10956;48.878;13.316;2023-04-25T02:02:09;93465.38;;;5.47;100.00
21588;BME280;10956;48.878;13.316;2023-04-25T02:04:34;93462.72;;;5.42;100.00
21588;BME280;10956;48.878;13.316;2023-04-25T02:07:00;93459.31;;;5.42;100.00
21588;BME280;10956;48.878;13.316;2023-04-25T02:09:25;93465.09;;;5.44;100.00
21588;BME280;10956;48.878;13.316;2023-04-25T02:11:51;93468.03;;;5.53;100.00
21588;BME280;10956;48.878;13.316;2023-04-25T02:14:16;93470.66;;;5.58;100.00
21588;BME280;10956;48.878;13.316;2023-04-25T02:16:41;93467.56;;;5.61;100.00
21588;BME280;10956;48.878;13.316;2023-04-25T02:19:09;93470.44;;;5.64;100.00
21588;BME280;10956;48.878;13.316;2023-04-25T02:21:35;93472.31;;;5.69;100.00
21588;BME280;10956;48.878;13.316;2023-04-25T02:24:01;93472.84;;;5.71;100.00
21588;BME280;10956;48.878;13.316;2023-04-25T02:26:26;93471.81;;;5.72;100.00
21588;BME280;10956;48.878;13.316;2023-04-25T02:28:52;93465.03;;;5.76;100.00
21588;BME280;10956;48.878;13.316;2023-04-25T02:31:17;93468.16;;;5.73;100.00
21588;BME280;10956;48.878;13.316;2023-04-25T02:33:43;93472.84;;;5.71;100.00
21588;BME280;10956;48.878;13.316;2023-04-25T02:36:08;93468.09;;;5.63;100.00
21588;BME280;10956;48.878;13.316;2023-04-25T02:38:34;93473.31;;;5.63;100.00
21588;BME280;10956;48.878;13.316;2023-04-25T02:40:59;93465.47;;;5.63;100.00
21588;BME280;10956;48.878;13.316;2023-04-25T02:43:25;93464.94;;;5.61;100.00
21588;BME280;10956;48.878;13.316;2023-04-25T02:45:50;93464.94;;;5.61;100.00
21588;BME280;10956;48.878;13.316;2023-04-25T02:48:16;93469.66;;;5.64;100.00
21588;BME280;10956;48.878;13.316;2023-04-25T02:50:41;93463.94;;;5.67;100.00
21588;BME280;10956;48.878;13.316;2023-04-25T02:53:07;93462.63;;;5.69;100.00
21588;BME280;10956;48.878;13.316;2023-04-25T02:55:32;93456.66;;;5.74;100.00
21588;BME280;10956;48.878;13.316;2023-04-25T02:57:58;93452.50;;;5.78;100.00
21588;BME280;10956;48.878;13.316;2023-04-25T03:00:23;93457.16;;;5.71;100.00
21588;BME280;10956;48.878;13.316;2023-04-25T03:02:49;93453.50;;;5.72;100.00
21588;BME280;10956;48.878;13.316;2023-04-25T03:05:14;93454.03;;;5.74;100.00
21588;BME280;10956;48.878;13.316;2023-04-25T03:07:40;93449.59;;;5.74;100.00
21588;BME280;10956;48.878;13.316;2023-04-25T03:10:06;93445.19;;;5.80;100.00
21588;BME280;10956;48.878;13.316;2023-04-25T03:12:32;93446.50;;;5.82;100.00
21588;BME280;10956;48.878;13.316;2023-04-25T03:14:58;93444.69;;;5.88;100.00
21588;BME280;10956;48.878;13.316;2023-04-25T03:17:23;93433.75;;;5.91;100.00
21588;BME280;10956;48.878;13.316;2023-04-25T03:19:48;93439.72;;;5.87;100.00
21588;BME280;10956;48.878;13.316;2023-04-25T03:22:14;93438.69;;;5.88;100.00
21588;BME280;10956;48.878;13.316;2023-04-25T03:24:40;93432.13;;;5.85;100.00
21588;BME280;10956;48.878;13.316;2023-04-25T03:27:05;93433.69;;;5.81;100.00
21588;BME280;10956;48.878;13.316;2023-04-25T03:29:30;93439.41;;;5.78;100.00
21588;BME280;10956;48.878;13.316;2023-04-25T03:31:56;93436.81;;;5.78;100.00
21588;BME280;10956;48.878;13.316;2023-04-25T03:34:21;93430.28;;;5.80;100.00
21588;BME280;10956;48.878;13.316;2023-04-25T03:36:47;93424.28;;;5.85;100.00
21588;BME280;10956;48.878;13.316;2023-04-25T03:39:12;93418.53;;;5.83;100.00
21588;BME280;10956;48.878;13.316;2023-04-25T03:41:38;93414.31;;;5.77;100.00
21588;BME280;10956;48.878;13.316;2023-04-25T03:44:03;93411.66;;;5.67;100.00
21588;BME280;10956;48.878;13.316;2023-04-25T03:46:29;93420.47;;;5.56;100.00
21588;BME280;10956;48.878;13.316;2023-04-25T03:48:54;93427.72;;;5.43;100.00
21588;BME280;10956;48.878;13.316;2023-04-25T03:51:19;93433.97;;;5.37;100.00
21588;BME280;10956;48.878;13.316;2023-04-25T03:53:45;93435.53;;;5.38;100.00
21588;BME280;10956;48.878;13.316;2023-04-25T03:56:10;93437.91;;;5.40;100.00
21588;BME280;10956;48.878;13.316;2023-04-25T03:58:36;93430.88;;;5.45;100.00
21588;BME280;10956;48.878;13.316;2023-04-25T04:01:01;93435.09;;;5.51;100.00
21588;BME280;10956;48.878;13.316;2023-04-25T04:03:32;93439.31;;;5.58;100.00
21588;BME280;10956;48.878;13.316;2023-04-25T04:05:58;93433.84;;;5.64;100.00
21588;BME280;10956;48.878;13.316;2023-04-25T04:08:24;93430.47;;;5.69;100.00
21588;BME280;10956;48.878;13.316;2023-04-25T04:10:49;93433.88;;;5.69;100.00
21588;BME280;10956;48.878;13.316;2023-04-25T04:13:15;93422.63;;;5.64;100.00
21588;BME280;10956;48.878;13.316;2023-04-25T04:15:40;93427.34;;;5.67;100.00
21588;BME280;10956;48.878;13.316;2023-04-25T04:18:06;93421.59;;;5.70;100.00
21588;BME280;10956;48.878;13.316;2023-04-25T04:20:31;93431.00;;;5.71;100.00
21588;BME280;10956;48.878;13.316;2023-04-25T04:22:56;93429.97;;;5.72;100.00
21588;BME280;10956;48.878;13.316;2023-04-25T04:25:22;93433.13;;;5.74;100.00
21588;BME280;10956;48.878;13.316;2023-04-25T04:27:47;93437.84;;;5.77;100.00
21588;BME280;10956;48.878;13.316;2023-04-25T04:30:13;93438.13;;;5.80;100.00
21588;BME280;10956;48.878;13.316;2023-04-25T04:32:38;93428.03;;;5.94;100.00
21588;BME280;10956;48.878;13.316;2023-04-25T04:35:04;93438.19;;;5.91;100.00
21588;BME280;10956;48.878;13.316;2023-04-25T04:37:30;93435.88;;;5.94;100.00
21588;BME280;10956;48.878;13.316;2023-04-25T04:39:55;93429.59;;;5.95;100.00
21588;BME280;10956;48.878;13.316;2023-04-25T04:42:21;93437.97;;;5.97;100.00
21588;BME280;10956;48.878;13.316;2023-04-25T04:44:46;93437.47;;;6.00;100.00
21588;BME280;10956;48.878;13.316;2023-04-25T04:47:12;93434.34;;;6.08;100.00
21588;BME280;10956;48.878;13.316;2023-04-25T04:49:39;93446.16;;;6.16;100.00
21588;BME280;10956;48.878;13.316;2023-04-25T04:52:05;93445.91;;;6.23;100.00
21588;BME280;10956;48.878;13.316;2023-04-25T04:54:30;93442.28;;;6.29;100.00
21588;BME280;10956;48.878;13.316;2023-04-25T04:56:56;93437.31;;;6.37;100.00
21588;BME280;10956;48.878;13.316;2023-04-25T04:59:21;93435.53;;;6.53;100.00
21588;BME280;10956;48.878;13.316;2023-04-25T05:01:46;93432.94;;;6.68;100.00
21588;BME280;10956;48.878;13.316;2023-04-25T05:04:12;93431.91;;;6.85;100.00
21588;BME280;10956;48.878;13.316;2023-04-25T05:06:37;93426.69;;;6.95;100.00
21588;BME280;10956;48.878;13.316;2023-04-25T05:09:03;93430.63;;;7.02;100.00
21588;BME280;10956;48.878;13.316;2023-04-25T05:11:29;93432.19;;;7.08;100.00
21588;BME280;10956;48.878;13.316;2023-04-25T05:13:54;93439.25;;;7.13;100.00
21588;BME280;10956;48.878;13.316;2023-04-25T05:16:20;93430.34;;;7.24;100.00
21588;BME280;10956;48.878;13.316;2023-04-25T05:18:47;93425.09;;;7.39;100.00
21588;BME280;10956;48.878;13.316;2023-04-25T05:21:13;93425.06;;;7.55;100.00
21588;BME280;10956;48.878;13.316;2023-04-25T05:23:39;93423.19;;;7.81;100.00
21588;BME280;10956;48.878;13.316;2023-04-25T05:26:04;93424.69;;;8.02;100.00
21588;BME280;10956;48.878;13.316;2023-04-25T05:28:30;93423.03;;;8.21;100.00
21588;BME280;10956;48.878;13.316;2023-04-25T05:30:55;93424.31;;;8.34;100.00
21588;BME280;10956;48.878;13.316;2023-04-25T05:33:21;93427.16;;;8.43;100.00
21588;BME280;10956;48.878;13.316;2023-04-25T05:35:46;93425.34;;;8.38;100.00
21588;BME280;10956;48.878;13.316;2023-04-25T05:38:12;93427.97;;;8.38;100.00
21588;BME280;10956;48.878;13.316;2023-04-25T05:40:37;93428.50;;;8.40;100.00
21588;BME280;10956;48.878;13.316;2023-04-25T05:43:03;93420.63;;;8.35;100.00
21588;BME280;10956;48.878;13.316;2023-04-25T05:45:28;93416.94;;;8.31;100.00
21588;BME280;10956;48.878;13.316;2023-04-25T05:47:53;93418.03;;;8.25;100.00
21588;BME280;10956;48.878;13.316;2023-04-25T05:50:19;93420.16;;;8.18;100.00
21588;BME280;10956;48.878;13.316;2023-04-25T05:52:44;93416.00;;;8.06;100.00
21588;BME280;10956;48.878;13.316;2023-04-25T05:55:10;93413.69;;;7.95;100.00
21588;BME280;10956;48.878;13.316;2023-04-25T05:57:35;93417.66;;;7.87;100.00
21588;BME280;10956;48.878;13.316;2023-04-25T06:00:01;93421.31;;;7.86;100.00
21588;BME280;10956;48.878;13.316;2023-04-25T06:02:26;93421.84;;;7.88;100.00
21588;BME280;10956;48.878;13.316;2023-04-25T06:04:52;93419.16;;;8.08;100.00
21588;BME280;10956;48.878;13.316;2023-04-25T06:07:18;93426.66;;;8.40;100.00
21588;BME280;10956;48.878;13.316;2023-04-25T06:09:44;93431.00;;;8.60;100.00
21588;BME280;10956;48.878;13.316;2023-04-25T06:12:10;93417.34;;;8.58;100.00
21588;BME280;10956;48.878;13.316;2023-04-25T06:14:35;93420.56;;;8.50;100.00
21588;BME280;10956;48.878;13.316;2023-04-25T06:17:01;93413.25;;;8.42;100.00
21588;BME280;10956;48.878;13.316;2023-04-25T06:19:32;93410.41;;;8.33;100.00
21588;BME280;10956;48.878;13.316;2023-04-25T06:21:58;93403.72;;;8.56;100.00
21588;BME280;10956;48.878;13.316;2023-04-25T06:24:23;93404.50;;;8.96;100.00
21588;BME280;10956;48.878;13.316;2023-04-25T06:26:48;93399.00;;;9.26;100.00
21588;BME280;10956;48.878;13.316;2023-04-25T06:29:14;93404.47;;;9.59;100.00
21588;BME280;10956;48.878;13.316;2023-04-25T06:31:39;93402.44;;;10.03;100.00
21588;BME280;10956;48.878;13.316;2023-04-25T06:34:05;93401.97;;;10.44;98.60
21588;BME280;10956;48.878;13.316;2023-04-25T06:36:30;93398.75;;;10.47;97.09
21588;BME280;10956;48.878;13.316;2023-04-25T06:38:56;93398.31;;;10.40;97.14
21588;BME280;10956;48.878;13.316;2023-04-25T06:41:22;93398.31;;;10.40;97.52
21588;BME280;10956;48.878;13.316;2023-04-25T06:43:47;93392.84;;;10.37;99.01
21588;BME280;10956;48.878;13.316;2023-04-25T06:46:13;93392.00;;;10.41;99.02
21588;BME280;10956;48.878;13.316;2023-04-25T06:48:38;93388.88;;;10.58;99.76
21588;BME280;10956;48.878;13.316;2023-04-25T06:51:03;93380.59;;;10.83;99.46
21588;BME280;10956;48.878;13.316;2023-04-25T06:53:29;93381.81;;;10.91;98.46
21588;BME280;10956;48.878;13.316;2023-04-25T06:55:54;93386.81;;;10.74;97.96
21588;BME280;10956;48.878;13.316;2023-04-25T06:58:20;93395.41;;;10.42;98.89
21588;BME280;10956;48.878;13.316;2023-04-25T07:00:45;93387.94;;;9.82;100.00
21588;BME280;10956;48.878;13.316;2023-04-25T07:03:11;93383.72;;;9.28;100.00
21588;BME280;10956;48.878;13.316;2023-04-25T07:05:37;93391.28;;;8.72;100.00
21588;BME280;10956;48.878;13.316;2023-04-25T07:08:02;93386.97;;;8.47;100.00
21588;BME280;10956;48.878;13.316;2023-04-25T07:10:28;93387.28;;;8.35;100.00
21588;BME280;10956;48.878;13.316;2023-04-25T07:12:53;93378.13;;;8.33;100.00
21588;BME280;10956;48.878;13.316;2023-04-25T07:15:19;93376.38;;;8.62;100.00
21588;BME280;10956;48.878;13.316;2023-04-25T07:17:44;93382.25;;;9.17;100.00
21588;BME280;10956;48.878;13.316;2023-04-25T07:20:10;93375.16;;;9.47;100.00
21588;BME280;10956;48.878;13.316;2023-04-25T07:22:35;93375.50;;;9.64;100.00
21588;BME280;10956;48.878;13.316;2023-04-25T07:25:01;93382.56;;;9.68;100.00
21588;BME280;10956;48.878;13.316;2023-04-25T07:27:26;93379.75;;;9.60;100.00
21588;BME280;10956;48.878;13.316;2023-04-25T07:29:52;93379.53;;;9.56;100.00
21588;BME280;10956;48.878;13.316;2023-04-25T07:32:18;93377.69;;;9.57;100.00
21588;BME280;10956;48.878;13.316;2023-04-25T07:34:44;93375.06;;;9.81;100.00
21588;BME280;10956;48.878;13.316;2023-04-25T07:37:09;93374.91;;;10.15;99.21
21588;BME280;10956;48.878;13.316;2023-04-25T07:39:35;93370.00;;;10.32;96.95
21588;BME280;10956;48.878;13.316;2023-04-25T07:42:02;93371.34;;;10.48;96.55
21588;BME280;10956;48.878;13.316;2023-04-25T07:44:29;93363.94;;;10.69;96.67
21588;BME280;10956;48.878;13.316;2023-04-25T07:46:55;93371.31;;;11.05;95.59
21588;BME280;10956;48.878;13.316;2023-04-25T07:49:21;93366.66;;;11.15;92.82
21588;BME280;10956;48.878;13.316;2023-04-25T07:51:47;93372.50;;;11.12;92.41
21588;BME280;10956;48.878;13.316;2023-04-25T07:54:14;93365.00;;;11.19;91.89
21588;BME280;10956;48.878;13.316;2023-04-25T07:56:39;93374.88;;;10.95;89.09
21588;BME280;10956;48.878;13.316;2023-04-25T07:59:05;93363.72;;;10.65;90.94
21588;BME280;10956;48.878;13.316;2023-04-25T08:01:31;93372.00;;;10.40;94.05
21588;BME280;10956;48.878;13.316;2023-04-25T08:03:56;93367.38;;;10.51;93.72
21588;BME280;10956;48.878;13.316;2023-04-25T08:06:21;93373.84;;;10.58;92.52
21588;BME280;10956;48.878;13.316;2023-04-25T08:08:47;93365.31;;;10.66;92.19
21588;BME280;10956;48.878;13.316;2023-04-25T08:11:12;93368.34;;;10.74;92.02
21588;BME280;10956;48.878;13.316;2023-04-25T08:13:37;93367.72;;;10.63;91.13
21588;BME280;10956;48.878;13.316;2023-04-25T08:16:03;93363.44;;;10.48;92.95
21588;BME280;10956;48.878;13.316;2023-04-25T08:18:28;93377.63;;;10.52;95.11
21588;BME280;10956;48.878;13.316;2023-04-25T08:20:54;93374.34;;;10.79;95.44
21588;BME280;10956;48.878;13.316;2023-04-25T08:23:19;93372.66;;;11.02;94.58
21588;BME280;10956;48.878;13.316;2023-04-25T08:25:44;93376.38;;;11.01;93.69
21588;BME280;10956;48.878;13.316;2023-04-25T08:28:10;93372.66;;;11.02;93.63
21588;BME280;10956;48.878;13.316;2023-04-25T08:30:36;93377.31;;;11.24;94.24
21588;BME280;10956;48.878;13.316;2023-04-25T08:33:01;93372.97;;;11.47;94.38
21588;BME280;10956;48.878;13.316;2023-04-25T08:35:27;93369.69;;;11.55;92.92
21588;BME280;10956;48.878;13.316;2023-04-25T08:37:52;93350.91;;;11.43;91.46
21588;BME280;10956;48.878;13.316;2023-04-25T08:40:19;93368.69;;;11.51;91.80
21588;BME280;10956;48.878;13.316;2023-04-25T08:42:52;93368.72;;;11.64;92.48
21588;BME280;10956;48.878;13.316;2023-04-25T08:45:18;93376.16;;;11.76;91.56
21588;BME280;10956;48.878;13.316;2023-04-25T08:47:45;93367.38;;;11.81;90.65
21588;BME280;10956;48.878;13.316;2023-04-25T08:50:11;93375.00;;;11.82;89.78
21588;BME280;10956;48.878;13.316;2023-04-25T08:52:37;93378.97;;;11.66;89.83
21588;BME280;10956;48.878;13.316;2023-04-25T08:55:06;93375.59;;;11.79;90.72
21588;BME280;10956;48.878;13.316;2023-04-25T08:57:34;93375.47;;;12.25;90.59
21588;BME280;10956;48.878;13.316;2023-04-25T09:00:01;93374.78;;;12.47;87.35
21588;BME280;10956;48.878;13.316;2023-04-25T09:02:27;93383.19;;;12.49;88.65
21588;BME280;10956;48.878;13.316;2023-04-25T09:04:53;93381.13;;;12.46;88.26
21588;BME280;10956;48.878;13.316;2023-04-25T09:07:19;93374.97;;;12.37;88.56
21588;BME280;10956;48.878;13.316;2023-04-25T09:09:46;93377.56;;;12.15;86.65
21588;BME280;10956;48.878;13.316;2023-04-25T09:12:12;93378.34;;;11.88;87.09
21588;BME280;10956;48.878;13.316;2023-04-25T09:14:37;93373.03;;;11.74;88.08
21588;BME280;10956;48.878;13.316;2023-04-25T09:17:04;93373.44;;;11.81;89.85
21588;BME280;10956;48.878;13.316;2023-04-25T09:19:32;93366.22;;;12.01;89.59
21588;BME280;10956;48.878;13.316;2023-04-25T09:22:01;93356.59;;;12.32;90.05
21588;BME280;10956;48.878;13.316;2023-04-25T09:24:35;93376.31;;;12.62;88.80
21588;BME280;10956;48.878;13.316;2023-04-25T09:27:06;93375.16;;;12.54;84.72
21588;BME280;10956;48.878;13.316;2023-04-25T09:29:34;93362.19;;;12.67;85.06
21588;BME280;10956;48.878;13.316;2023-04-25T09:32:20;93365.34;;;12.55;80.99
21588;BME280;10956;48.878;13.316;2023-04-25T09:34:49;93377.75;;;12.18;82.65
21588;BME280;10956;48.878;13.316;2023-04-25T09:37:23;93376.78;;;11.87;84.21
21588;BME280;10956;48.878;13.316;2023-04-25T09:39:52;93381.66;;;11.93;85.09
21588;BME280;10956;48.878;13.316;2023-04-25T09:42:17;93388.59;;;12.17;86.02
21588;BME280;10956;48.878;13.316;2023-04-25T09:44:44;93397.09;;;12.27;86.20
21588;BME280;10956;48.878;13.316;2023-04-25T09:47:11;93399.84;;;12.22;85.13
21588;BME280;10956;48.878;13.316;2023-04-25T09:49:39;93404.53;;;12.12;86.16
21588;BME280;10956;48.878;13.316;2023-04-25T09:52:06;93393.59;;;12.18;84.80
21588;BME280;10956;48.878;13.316;2023-04-25T09:54:31;93427.34;;;12.35;83.27
21588;BME280;10956;48.878;13.316;2023-04-25T09:57:02;93427.91;;;12.32;81.43
21588;BME280;10956;48.878;13.316;2023-04-25T09:59:33;93429.19;;;11.93;79.20
21588;BME280;10956;48.878;13.316;2023-04-25T10:02:00;93446.75;;;11.19;83.23
21588;BME280;10956;48.878;13.316;2023-04-25T10:04:28;93443.84;;;10.22;90.14
21588;BME280;10956;48.878;13.316;2023-04-25T10:06:54;93439.75;;;9.58;96.38
21588;BME280;10956;48.878;13.316;2023-04-25T10:09:25;93448.22;;;9.50;98.61
21588;BME280;10956;48.878;13.316;2023-04-25T10:11:51;93451.00;;;9.34;99.56
21588;BME280;10956;48.878;13.316;2023-04-25T10:14:18;93457.38;;;9.23;98.73
21588;BME280;10956;48.878;13.316;2023-04-25T10:16:44;93459.00;;;9.19;97.59
21588;BME280;10956;48.878;13.316;2023-04-25T10:19:10;93458.53;;;9.12;97.82
21588;BME280;10956;48.878;13.316;2023-04-25T10:21:40;93461.69;;;9.09;98.93
21588;BME280;10956;48.878;13.316;2023-04-25T10:24:10;93463.59;;;8.98;100.00
21588;BME280;10956;48.878;13.316;2023-04-25T10:26:35;93465.44;;;8.98;100.00
21588;BME280;10956;48.878;13.316;2023-04-25T10:29:02;93467.59;;;8.91;100.00
21588;BME280;10956;48.878;13.316;2023-04-25T10:31:31;93467.28;;;8.97;100.00
21588;BME280;10956;48.878;13.316;2023-04-25T10:33:56;93457.41;;;9.18;100.00
21588;BME280;10956;48.878;13.316;2023-04-25T10:36:23;93462.22;;;9.45;100.00
21588;BME280;10956;48.878;13.316;2023-04-25T10:38:51;93455.44;;;9.68;100.00
21588;BME280;10956;48.878;13.316;2023-04-25T10:41:20;93454.16;;;9.89;100.00
21588;BME280;10956;48.878;13.316;2023-04-25T10:43:49;93449.06;;;9.98;100.00
21588;BME280;10956;48.878;13.316;2023-04-25T10:46:27;93446.38;;;10.03;100.00
21588;BME280;10956;48.878;13.316;2023-04-25T10:48:58;93441.75;;;10.19;100.00
21588;BME280;10956;48.878;13.316;2023-04-25T10:51:41;93441.47;;;10.44;100.00
21588;BME280;10956;48.878;13.316;2023-04-25T10:54:08;93447.91;;;10.76;99.97
21588;BME280;10956;48.878;13.316;2023-04-25T10:56:39;93444.91;;;11.01;97.36
21588;BME280;10956;48.878;13.316;2023-04-25T10:59:13;93445.84;;;11.10;97.04
21588;BME280;10956;48.878;13.316;2023-04-25T11:01:51;93445.25;;;11.13;98.05
21588;BME280;10956;48.878;13.316;2023-04-25T11:04:30;93437.00;;;11.20;99.30
21588;BME280;10956;48.878;13.316;2023-04-25T11:09:29;93432.88;;;11.79;98.15
21588;BME280;10956;48.878;13.316;2023-04-25T11:11:58;93434.56;;;12.16;94.74
21588;BME280;10956;48.878;13.316;2023-04-25T11:14:25;93437.59;;;12.37;92.22
21588;BME280;10956;48.878;13.316;2023-04-25T11:16:55;93437.81;;;12.26;93.09
21588;BME280;10956;48.878;13.316;2023-04-25T11:19:24;93430.25;;;11.92;93.83
21588;BME280;10956;48.878;13.316;2023-04-25T11:21:50;93421.47;;;11.51;94.66
21588;BME280;10956;48.878;13.316;2023-04-25T11:24:19;93426.41;;;11.39;95.81
21588;BME280;10956;48.878;13.316;2023-04-25T11:26:48;93428.44;;;11.28;96.43
21588;BME280;10956;48.878;13.316;2023-04-25T11:29:13;93422.59;;;11.12;99.62
21588;BME280;10956;48.878;13.316;2023-04-25T11:31:43;93414.00;;;10.88;100.00
21588;BME280;10956;48.878;13.316;2023-04-25T11:34:09;93414.16;;;10.59;100.00
21588;BME280;10956;48.878;13.316;2023-04-25T11:36:37;93424.88;;;10.44;100.00
21588;BME280;10956;48.878;13.316;2023-04-25T11:39:03;93431.50;;;10.41;100.00
21588;BME280;10956;48.878;13.316;2023-04-25T11:41:28;93437.41;;;10.52;100.00
21588;BME280;10956;48.878;13.316;2023-04-25T11:43:54;93436.50;;;10.61;100.00
21588;BME280;10956;48.878;13.316;2023-04-25T11:46:19;93450.03;;;10.74;100.00
21588;BME280;10956;48.878;13.316;2023-04-25T11:48:45;93450.25;;;10.58;100.00
21588;BME280;10956;48.878;13.316;2023-04-25T11:51:11;93460.75;;;10.40;100.00
21588;BME280;10956;48.878;13.316;2023-04-25T11:53:41;93469.97;;;10.13;100.00
21588;BME280;10956;48.878;13.316;2023-04-25T11:56:09;93467.56;;;9.64;100.00
21588;BME280;10956;48.878;13.316;2023-04-25T11:58:59;93462.84;;;9.32;100.00
21588;BME280;10956;48.878;13.316;2023-04-25T12:01:30;93461.00;;;9.32;100.00
21588;BME280;10956;48.878;13.316;2023-04-25T12:03:56;93464.56;;;9.47;100.00
21588;BME280;10956;48.878;13.316;2023-04-25T12:06:26;93454.88;;;9.71;100.00
21588;BME280;10956;48.878;13.316;2023-04-25T12:09:04;93454.19;;;10.13;100.00
21588;BME280;10956;48.878;13.316;2023-04-25T12:11:32;93453.56;;;10.45;100.00
21588;BME280;10956;48.878;13.316;2023-04-25T12:14:04;93444.28;;;10.72;100.00
21588;BME280;10956;48.878;13.316;2023-04-25T12:16:46;93447.19;;;10.89;100.00
21588;BME280;10956;48.878;13.316;2023-04-25T12:19:19;93441.84;;;10.94;100.00
21588;BME280;10956;48.878;13.316;2023-04-25T12:21:45;93439.28;;;10.89;100.00
21588;BME280;10956;48.878;13.316;2023-04-25T12:24:16;93442.28;;;10.82;100.00
21588;BME280;10956;48.878;13.316;2023-04-25T12:27:09;93437.66;;;10.74;100.00
21588;BME280;10956;48.878;13.316;2023-04-25T12:29:34;93430.75;;;10.59;100.00
21588;BME280;10956;48.878;13.316;2023-04-25T12:32:00;93428.88;;;10.60;100.00
21588;BME280;10956;48.878;13.316;2023-04-25T12:34:28;93433.88;;;10.61;100.00
21588;BME280;10956;48.878;13.316;2023-04-25T12:36:54;93431.16;;;10.66;100.00
21588;BME280;10956;48.878;13.316;2023-04-25T12:39:23;93432.81;;;10.62;100.00
21588;BME280;10956;48.878;13.316;2023-04-25T12:41:50;93423.75;;;10.68;100.00
21588;BME280;10956;48.878;13.316;2023-04-25T12:44:15;93415.94;;;10.82;100.00
21588;BME280;10956;48.878;13.316;2023-04-25T12:46:42;93419.19;;;11.12;100.00
21588;BME280;10956;48.878;13.316;2023-04-25T12:49:07;93412.22;;;11.35;100.00